sensor_id;sensor_type;location;lat;lon;timestamp;P1;durP1;ratioP1;P2;durP2;ratioP2
9524;SDS011;15940;48.734;9.112;2023-12-20T00:01:33;1.40;;;1.30;;
9524;SDS011;15940;48.734;9.112;2023-12-20T00:04:00;1.30;;;1.30;;
9524;SDS011;15940;48.734;9.112;2023-12-20T00:06:27;1.50;;;1.40;;
9524;SDS011;15940;48.734;9.112;2023-12-20T00:08:54;1.10;;;1.10;;
9524;SDS011;15940;48.734;9.112;2023-12-20T00:11:21;1.10;;;1.10;;
9524;SDS011;15940;48.734;9.112;2023-12-20T00:13:48;1.93;;;1.20;;
9524;SDS011;15940;48.734;9.112;2023-12-20T00:16:13;1.33;;;1.23;;
9524;SDS011;15940;48.734;9.112;2023-12-20T00:18:41;1.30;;;1.20;;
9524;SDS011;15940;48.734;9.112;2023-12-20T00:21:08;1.07;;;1.07;;
9524;SDS011;15940;48.734;9.112;2023-12-20T00:23:35;1.30;;;1.20;;
9524;SDS011;15940;48.734;9.112;2023-12-20T00:26:02;1.00;;;1.00;;
9524;SDS011;15940;48.734;9.112;2023-12-20T00:28:28;1.37;;;1.20;;
9524;SDS011;15940;48.734;9.112;2023-12-20T00:30:55;1.30;;;1.20;;
9524;SDS011;15940;48.734;9.112;2023-12-20T00:33:22;1.20;;;1.10;;
9524;SDS011;15940;48.734;9.112;2023-12-20T00:35:50;1.40;;;1.30;;
9524;SDS011;15940;48.734;9.112;2023-12-20T00:38:17;1.00;;;1.00;;
9524;SDS011;15940;48.734;9.112;2023-12-20T00:40:44;1.50;;;1.00;;
9524;SDS011;15940;48.734;9.112;2023-12-20T00:43:10;1.10;;;1.10;;
9524;SDS011;15940;48.734;9.112;2023-12-20T00:45:37;1.83;;;1.00;;
9524;SDS011;15940;48.734;9.112;2023-12-20T00:48:05;1.10;;;1.10;;
9524;SDS011;15940;48.734;9.112;2023-12-20T00:50:32;1.10;;;1.00;;
9524;SDS011;15940;48.734;9.112;2023-12-20T00:53:00;1.87;;;1.30;;
9524;SDS011;15940;48.734;9.112;2023-12-20T00:55:27;1.00;;;1.00;;
9524;SDS011;15940;48.734;9.112;2023-12-20T00:57:54;1.53;;;1.10;;
9524;SDS011;15940;48.734;9.112;2023-12-20T01:00:20;1.17;;;1.07;;
9524;SDS011;15940;48.734;9.112;2023-12-20T01:02:47;1.83;;;1.20;;
9524;SDS011;15940;48.734;9.112;2023-12-20T01:05:16;3.20;;;1.27;;
9524;SDS011;15940;48.734;9.112;2023-12-20T01:07:44;0.90;;;0.90;;
9524;SDS011;15940;48.734;9.112;2023-12-20T01:10:12;1.20;;;1.20;;
9524;SDS011;15940;48.734;9.112;2023-12-20T01:12:39;1.33;;;1.23;;
9524;SDS011;15940;48.734;9.112;2023-12-20T01:15:05;1.10;;;1.10;;
9524;SDS011;15940;48.734;9.112;2023-12-20T01:17:32;1.57;;;1.20;;
9524;SDS011;15940;48.734;9.112;2023-12-20T01:19:59;1.00;;;1.00;;
9524;SDS011;15940;48.734;9.112;2023-12-20T01:22:26;1.20;;;1.10;;
9524;SDS011;15940;48.734;9.112;2023-12-20T01:24:53;1.17;;;1.17;;
9524;SDS011;15940;48.734;9.112;2023-12-20T01:27:21;1.30;;;1.20;;
9524;SDS011;15940;48.734;9.112;2023-12-20T01:29:47;1.40;;;1.30;;
9524;SDS011;15940;48.734;9.112;2023-12-20T01:32:14;1.03;;;1.03;;
9524;SDS011;15940;48.734;9.112;2023-12-20T01:34:41;1.10;;;1.10;;
9524;SDS011;15940;48.734;9.112;2023-12-20T01:37:08;1.10;;;1.10;;
9524;SDS011;15940;48.734;9.112;2023-12-20T01:39:34;1.30;;;1.30;;
9524;SDS011;15940;48.734;9.112;2023-12-20T01:42:01;1.37;;;1.27;;
9524;SDS011;15940;48.734;9.112;2023-12-20T01:44:29;1.00;;;1.00;;
9524;SDS011;15940;48.734;9.112;2023-12-20T01:46:56;1.43;;;1.13;;
9524;SDS011;15940;48.734;9.112;2023-12-20T01:49:23;1.70;;;1.07;;
9524;SDS011;15940;48.734;9.112;2023-12-20T01:51:50;2.47;;;1.00;;
9524;SDS011;15940;48.734;9.112;2023-12-20T01:54:17;1.20;;;1.10;;
9524;SDS011;15940;48.734;9.112;2023-12-20T01:56:44;1.30;;;1.20;;
9524;SDS011;15940;48.734;9.112;2023-12-20T01:59:10;0.97;;;0.97;;
9524;SDS011;15940;48.734;9.112;2023-12-20T02:01:39;1.10;;;1.10;;
9524;SDS011;15940;48.734;9.112;2023-12-20T02:04:05;0.90;;;0.90;;
9524;SDS011;15940;48.734;9.112;2023-12-20T02:06:32;0.80;;;0.80;;
9524;SDS011;15940;48.734;9.112;2023-12-20T02:09:00;2.33;;;1.20;;
9524;SDS011;15940;48.734;9.112;2023-12-20T02:11:27;0.90;;;0.90;;
9524;SDS011;15940;48.734;9.112;2023-12-20T02:13:53;1.07;;;0.80;;
9524;SDS011;15940;48.734;9.112;2023-12-20T02:16:20;0.70;;;0.70;;
9524;SDS011;15940;48.734;9.112;2023-12-20T02:18:49;1.23;;;0.80;;
9524;SDS011;15940;48.734;9.112;2023-12-20T02:21:15;4.60;;;1.00;;
9524;SDS011;15940;48.734;9.112;2023-12-20T02:23:44;0.83;;;0.83;;
9524;SDS011;15940;48.734;9.112;2023-12-20T02:26:10;0.90;;;0.90;;
9524;SDS011;15940;48.734;9.112;2023-12-20T02:28:38;1.57;;;0.90;;
9524;SDS011;15940;48.734;9.112;2023-12-20T02:31:05;2.17;;;0.70;;
9524;SDS011;15940;48.734;9.112;2023-12-20T02:33:32;0.80;;;0.80;;
9524;SDS011;15940;48.734;9.112;2023-12-20T02:35:59;2.20;;;0.77;;
9524;SDS011;15940;48.734;9.112;2023-12-20T02:38:26;0.63;;;0.63;;
9524;SDS011;15940;48.734;9.112;2023-12-20T02:40:54;0.63;;;0.63;;
9524;SDS011;15940;48.734;9.112;2023-12-20T02:43:20;1.47;;;1.43;;
9524;SDS011;15940;48.734;9.112;2023-12-20T02:45:47;1.47;;;0.80;;
9524;SDS011;15940;48.734;9.112;2023-12-20T02:48:14;0.93;;;0.53;;
9524;SDS011;15940;48.734;9.112;2023-12-20T02:50:40;0.70;;;0.60;;
9524;SDS011;15940;48.734;9.112;2023-12-20T02:53:07;0.60;;;0.60;;
9524;SDS011;15940;48.734;9.112;2023-12-20T02:55:34;0.60;;;0.60;;
9524;SDS011;15940;48.734;9.112;2023-12-20T02:58:02;0.80;;;0.80;;
9524;SDS011;15940;48.734;9.112;2023-12-20T03:00:29;0.60;;;0.60;;
9524;SDS011;15940;48.734;9.112;2023-12-20T03:02:56;0.73;;;0.73;;
9524;SDS011;15940;48.734;9.112;2023-12-20T03:05:24;1.00;;;0.73;;
9524;SDS011;15940;48.734;9.112;2023-12-20T03:07:51;1.07;;;0.63;;
9524;SDS011;15940;48.734;9.112;2023-12-20T03:10:18;0.60;;;0.53;;
9524;SDS011;15940;48.734;9.112;2023-12-20T03:12:45;1.53;;;0.70;;
9524;SDS011;15940;48.734;9.112;2023-12-20T03:15:13;0.50;;;0.50;;
9524;SDS011;15940;48.734;9.112;2023-12-20T03:17:39;0.43;;;0.43;;
9524;SDS011;15940;48.734;9.112;2023-12-20T03:20:07;0.63;;;0.30;;
9524;SDS011;15940;48.734;9.112;2023-12-20T03:22:34;1.47;;;0.67;;
9524;SDS011;15940;48.734;9.112;2023-12-20T03:25:01;1.03;;;0.90;;
9524;SDS011;15940;48.734;9.112;2023-12-20T03:27:28;0.77;;;0.70;;
9524;SDS011;15940;48.734;9.112;2023-12-20T03:29:54;0.67;;;0.53;;
9524;SDS011;15940;48.734;9.112;2023-12-20T03:32:22;0.47;;;0.47;;
9524;SDS011;15940;48.734;9.112;2023-12-20T03:34:49;0.33;;;0.33;;
9524;SDS011;15940;48.734;9.112;2023-12-20T03:37:16;0.57;;;0.40;;
9524;SDS011;15940;48.734;9.112;2023-12-20T03:39:43;0.03;;;0.03;;
9524;SDS011;15940;48.734;9.112;2023-12-20T03:42:09;0.53;;;0.37;;
9524;SDS011;15940;48.734;9.112;2023-12-20T03:44:38;0.13;;;0.10;;
9524;SDS011;15940;48.734;9.112;2023-12-20T03:47:04;0.20;;;0.20;;
9524;SDS011;15940;48.734;9.112;2023-12-20T03:49:33;0.20;;;0.20;;
9524;SDS011;15940;48.734;9.112;2023-12-20T03:52:02;0.10;;;0.10;;
9524;SDS011;15940;48.734;9.112;2023-12-20T03:54:29;0.20;;;0.20;;
9524;SDS011;15940;48.734;9.112;2023-12-20T03:56:56;0.10;;;0.10;;
9524;SDS011;15940;48.734;9.112;2023-12-20T03:59:22;0.10;;;0.10;;
9524;SDS011;15940;48.734;9.112;2023-12-20T04:01:49;0.20;;;0.20;;
9524;SDS011;15940;48.734;9.112;2023-12-20T04:04:16;0.53;;;0.10;;
9524;SDS011;15940;48.734;9.112;2023-12-20T04:06:44;1.23;;;0.27;;
9524;SDS011;15940;48.734;9.112;2023-12-20T04:09:11;0.40;;;0.20;;
9524;SDS011;15940;48.734;9.112;2023-12-20T04:11:38;0.37;;;0.17;;
9524;SDS011;15940;48.734;9.112;2023-12-20T04:14:04;0.10;;;0.10;;
9524;SDS011;15940;48.734;9.112;2023-12-20T04:16:32;0.30;;;0.27;;
9524;SDS011;15940;48.734;9.112;2023-12-20T04:18:59;0.10;;;0.10;;
9524;SDS011;15940;48.734;9.112;2023-12-20T04:21:26;1.10;;;0.27;;
9524;SDS011;15940;48.734;9.112;2023-12-20T04:23:54;0.20;;;0.20;;
9524;SDS011;15940;48.734;9.112;2023-12-20T04:26:20;0.20;;;0.20;;
9524;SDS011;15940;48.734;9.112;2023-12-20T04:28:47;0.20;;;0.20;;
9524;SDS011;15940;48.734;9.112;2023-12-20T04:31:14;0.20;;;0.20;;
9524;SDS011;15940;48.734;9.112;2023-12-20T04:33:41;2.03;;;0.20;;
9524;SDS011;15940;48.734;9.112;2023-12-20T04:36:07;1.90;;;0.30;;
9524;SDS011;15940;48.734;9.112;2023-12-20T04:38:35;0.40;;;0.30;;
9524;SDS011;15940;48.734;9.112;2023-12-20T04:41:03;2.57;;;0.40;;
9524;SDS011;15940;48.734;9.112;2023-12-20T04:43:30;0.70;;;0.20;;
9524;SDS011;15940;48.734;9.112;2023-12-20T04:45:56;0.20;;;0.20;;
9524;SDS011;15940;48.734;9.112;2023-12-20T04:48:23;1.17;;;0.60;;
9524;SDS011;15940;48.734;9.112;2023-12-20T04:50:50;0.20;;;0.20;;
9524;SDS011;15940;48.734;9.112;2023-12-20T04:53:16;0.53;;;0.40;;
9524;SDS011;15940;48.734;9.112;2023-12-20T04:55:43;1.53;;;0.40;;
9524;SDS011;15940;48.734;9.112;2023-12-20T04:58:11;0.37;;;0.27;;
9524;SDS011;15940;48.734;9.112;2023-12-20T05:00:38;0.27;;;0.27;;
9524;SDS011;15940;48.734;9.112;2023-12-20T05:03:05;0.23;;;0.13;;
9524;SDS011;15940;48.734;9.112;2023-12-20T05:05:33;0.20;;;0.20;;
9524;SDS011;15940;48.734;9.112;2023-12-20T05:08:00;0.17;;;0.17;;
9524;SDS011;15940;48.734;9.112;2023-12-20T05:10:26;0.40;;;0.30;;
9524;SDS011;15940;48.734;9.112;2023-12-20T05:12:53;1.80;;;0.40;;
9524;SDS011;15940;48.734;9.112;2023-12-20T05:15:21;2.57;;;0.47;;
9524;SDS011;15940;48.734;9.112;2023-12-20T05:17:48;0.77;;;0.30;;
9524;SDS011;15940;48.734;9.112;2023-12-20T05:20:14;1.60;;;0.50;;
9524;SDS011;15940;48.734;9.112;2023-12-20T05:22:41;2.87;;;0.70;;
9524;SDS011;15940;48.734;9.112;2023-12-20T05:25:09;1.70;;;0.37;;
9524;SDS011;15940;48.734;9.112;2023-12-20T05:27:36;1.03;;;0.40;;
9524;SDS011;15940;48.734;9.112;2023-12-20T05:30:03;0.77;;;0.47;;
9524;SDS011;15940;48.734;9.112;2023-12-20T05:32:32;0.73;;;0.30;;
9524;SDS011;15940;48.734;9.112;2023-12-20T05:34:59;0.40;;;0.40;;
9524;SDS011;15940;48.734;9.112;2023-12-20T05:37:25;2.23;;;0.30;;
9524;SDS011;15940;48.734;9.112;2023-12-20T05:39:52;0.20;;;0.20;;
9524;SDS011;15940;48.734;9.112;2023-12-20T05:42:19;1.40;;;0.60;;
9524;SDS011;15940;48.734;9.112;2023-12-20T05:44:45;0.50;;;0.30;;
9524;SDS011;15940;48.734;9.112;2023-12-20T05:47:12;0.33;;;0.33;;
9524;SDS011;15940;48.734;9.112;2023-12-20T05:49:40;1.03;;;0.33;;
9524;SDS011;15940;48.734;9.112;2023-12-20T05:52:07;0.60;;;0.30;;
9524;SDS011;15940;48.734;9.112;2023-12-20T05:54:34;1.00;;;0.60;;
9524;SDS011;15940;48.734;9.112;2023-12-20T05:57:00;0.30;;;0.30;;
9524;SDS011;15940;48.734;9.112;2023-12-20T05:59:27;0.67;;;0.50;;
9524;SDS011;15940;48.734;9.112;2023-12-20T06:01:54;2.03;;;1.00;;
9524;SDS011;15940;48.734;9.112;2023-12-20T06:04:20;2.77;;;1.37;;
9524;SDS011;15940;48.734;9.112;2023-12-20T06:06:48;4.37;;;1.00;;
9524;SDS011;15940;48.734;9.112;2023-12-20T06:09:15;0.60;;;0.60;;
9524;SDS011;15940;48.734;9.112;2023-12-20T06:11:42;2.13;;;0.80;;
9524;SDS011;15940;48.734;9.112;2023-12-20T06:14:09;0.93;;;0.67;;
9524;SDS011;15940;48.734;9.112;2023-12-20T06:16:35;0.47;;;0.47;;
9524;SDS011;15940;48.734;9.112;2023-12-20T06:19:02;1.43;;;0.70;;
9524;SDS011;15940;48.734;9.112;2023-12-20T06:21:29;2.40;;;0.80;;
9524;SDS011;15940;48.734;9.112;2023-12-20T06:23:58;1.90;;;0.67;;
9524;SDS011;15940;48.734;9.112;2023-12-20T06:26:25;2.27;;;0.60;;
9524;SDS011;15940;48.734;9.112;2023-12-20T06:28:51;1.57;;;0.70;;
9524;SDS011;15940;48.734;9.112;2023-12-20T06:31:18;0.90;;;0.60;;
9524;SDS011;15940;48.734;9.112;2023-12-20T06:33:45;0.87;;;0.70;;
9524;SDS011;15940;48.734;9.112;2023-12-20T06:36:11;0.60;;;0.60;;
9524;SDS011;15940;48.734;9.112;2023-12-20T06:38:39;2.90;;;0.93;;
9524;SDS011;15940;48.734;9.112;2023-12-20T06:41:08;2.97;;;0.90;;
9524;SDS011;15940;48.734;9.112;2023-12-20T06:43:37;0.87;;;0.87;;
9524;SDS011;15940;48.734;9.112;2023-12-20T06:46:03;1.83;;;1.07;;
9524;SDS011;15940;48.734;9.112;2023-12-20T06:48:30;4.90;;;1.23;;
9524;SDS011;15940;48.734;9.112;2023-12-20T06:50:57;3.43;;;0.67;;
9524;SDS011;15940;48.734;9.112;2023-12-20T06:53:27;1.23;;;1.00;;
9524;SDS011;15940;48.734;9.112;2023-12-20T06:55:53;1.80;;;1.40;;
9524;SDS011;15940;48.734;9.112;2023-12-20T06:58:22;1.77;;;1.40;;
9524;SDS011;15940;48.734;9.112;2023-12-20T07:00:50;0.90;;;0.90;;
9524;SDS011;15940;48.734;9.112;2023-12-20T07:03:17;0.80;;;0.80;;
9524;SDS011;15940;48.734;9.112;2023-12-20T07:05:44;2.00;;;1.10;;
9524;SDS011;15940;48.734;9.112;2023-12-20T07:08:11;2.83;;;0.70;;
9524;SDS011;15940;48.734;9.112;2023-12-20T07:10:39;1.23;;;0.87;;
9524;SDS011;15940;48.734;9.112;2023-12-20T07:13:06;1.30;;;0.93;;
9524;SDS011;15940;48.734;9.112;2023-12-20T07:15:34;1.33;;;0.80;;
9524;SDS011;15940;48.734;9.112;2023-12-20T07:18:02;1.37;;;0.80;;
9524;SDS011;15940;48.734;9.112;2023-12-20T07:20:28;0.80;;;0.53;;
9524;SDS011;15940;48.734;9.112;2023-12-20T07:22:55;1.60;;;1.20;;
9524;SDS011;15940;48.734;9.112;2023-12-20T07:25:22;1.63;;;0.97;;
9524;SDS011;15940;48.734;9.112;2023-12-20T07:27:49;1.13;;;0.80;;
9524;SDS011;15940;48.734;9.112;2023-12-20T07:30:15;1.33;;;1.00;;
9524;SDS011;15940;48.734;9.112;2023-12-20T07:32:44;1.10;;;1.00;;
9524;SDS011;15940;48.734;9.112;2023-12-20T07:35:10;1.90;;;1.30;;
9524;SDS011;15940;48.734;9.112;2023-12-20T07:37:37;1.80;;;1.70;;
9524;SDS011;15940;48.734;9.112;2023-12-20T07:40:04;1.73;;;1.63;;
9524;SDS011;15940;48.734;9.112;2023-12-20T07:42:32;1.90;;;1.80;;
9524;SDS011;15940;48.734;9.112;2023-12-20T07:44:59;2.10;;;1.90;;
9524;SDS011;15940;48.734;9.112;2023-12-20T07:47:25;2.30;;;2.10;;
9524;SDS011;15940;48.734;9.112;2023-12-20T07:49:53;3.43;;;2.67;;
9524;SDS011;15940;48.734;9.112;2023-12-20T07:52:20;4.43;;;2.57;;
9524;SDS011;15940;48.734;9.112;2023-12-20T07:54:48;2.83;;;2.40;;
9524;SDS011;15940;48.734;9.112;2023-12-20T07:57:14;2.80;;;2.60;;
9524;SDS011;15940;48.734;9.112;2023-12-20T07:59:41;2.90;;;2.70;;
9524;SDS011;15940;48.734;9.112;2023-12-20T08:02:09;3.63;;;2.77;;
9524;SDS011;15940;48.734;9.112;2023-12-20T08:04:36;4.07;;;3.10;;
9524;SDS011;15940;48.734;9.112;2023-12-20T08:07:04;3.43;;;3.13;;
9524;SDS011;15940;48.734;9.112;2023-12-20T08:09:31;3.93;;;3.00;;
9524;SDS011;15940;48.734;9.112;2023-12-20T08:11:58;3.20;;;2.90;;
9524;SDS011;15940;48.734;9.112;2023-12-20T08:14:25;4.00;;;3.60;;
9524;SDS011;15940;48.734;9.112;2023-12-20T08:16:52;4.03;;;3.17;;
9524;SDS011;15940;48.734;9.112;2023-12-20T08:19:19;6.67;;;3.33;;
9524;SDS011;15940;48.734;9.112;2023-12-20T08:21:45;4.77;;;3.70;;
9524;SDS011;15940;48.734;9.112;2023-12-20T08:24:13;3.40;;;3.10;;
9524;SDS011;15940;48.734;9.112;2023-12-20T08:26:40;3.87;;;2.90;;
9524;SDS011;15940;48.734;9.112;2023-12-20T08:29:07;5.93;;;3.93;;
9524;SDS011;15940;48.734;9.112;2023-12-20T08:31:34;3.40;;;3.10;;
9524;SDS011;15940;48.734;9.112;2023-12-20T08:34:01;3.17;;;2.97;;
9524;SDS011;15940;48.734;9.112;2023-12-20T08:36:27;3.33;;;3.07;;
9524;SDS011;15940;48.734;9.112;2023-12-20T08:38:54;5.63;;;3.57;;
9524;SDS011;15940;48.734;9.112;2023-12-20T08:41:22;6.07;;;3.47;;
9524;SDS011;15940;48.734;9.112;2023-12-20T08:43:49;7.10;;;3.80;;
9524;SDS011;15940;48.734;9.112;2023-12-20T08:46:16;5.80;;;3.40;;
9524;SDS011;15940;48.734;9.112;2023-12-20T08:48:42;4.90;;;3.20;;
9524;SDS011;15940;48.734;9.112;2023-12-20T08:51:10;3.90;;;3.50;;
9524;SDS011;15940;48.734;9.112;2023-12-20T08:53:36;4.97;;;2.90;;
9524;SDS011;15940;48.734;9.112;2023-12-20T08:56:03;7.20;;;3.03;;
9524;SDS011;15940;48.734;9.112;2023-12-20T08:58:32;3.17;;;2.90;;
9524;SDS011;15940;48.734;9.112;2023-12-20T09:01:00;4.43;;;2.97;;
9524;SDS011;15940;48.734;9.112;2023-12-20T09:03:27;4.27;;;2.83;;
9524;SDS011;15940;48.734;9.112;2023-12-20T09:05:54;3.10;;;2.80;;
9524;SDS011;15940;48.734;9.112;2023-12-20T09:08:21;2.93;;;2.63;;
9524;SDS011;15940;48.734;9.112;2023-12-20T09:10:47;3.03;;;2.77;;
9524;SDS011;15940;48.734;9.112;2023-12-20T09:13:14;4.47;;;2.37;;
9524;SDS011;15940;48.734;9.112;2023-12-20T09:15:42;3.93;;;3.03;;
9524;SDS011;15940;48.734;9.112;2023-12-20T09:18:09;3.43;;;2.60;;
9524;SDS011;15940;48.734;9.112;2023-12-20T09:20:36;5.97;;;2.40;;
9524;SDS011;15940;48.734;9.112;2023-12-20T09:23:02;3.17;;;2.30;;
9524;SDS011;15940;48.734;9.112;2023-12-20T09:25:29;3.30;;;2.43;;
9524;SDS011;15940;48.734;9.112;2023-12-20T09:27:56;4.50;;;2.03;;
9524;SDS011;15940;48.734;9.112;2023-12-20T09:30:23;2.87;;;2.00;;
9524;SDS011;15940;48.734;9.112;2023-12-20T09:32:51;3.40;;;1.90;;
9524;SDS011;15940;48.734;9.112;2023-12-20T09:35:18;5.77;;;2.07;;
9524;SDS011;15940;48.734;9.112;2023-12-20T09:37:45;2.17;;;1.63;;
9524;SDS011;15940;48.734;9.112;2023-12-20T09:40:12;2.63;;;1.53;;
9524;SDS011;15940;48.734;9.112;2023-12-20T09:42:41;3.10;;;1.57;;
9524;SDS011;15940;48.734;9.112;2023-12-20T09:45:10;2.93;;;1.53;;
9524;SDS011;15940;48.734;9.112;2023-12-20T09:47:40;2.57;;;1.73;;
9524;SDS011;15940;48.734;9.112;2023-12-20T09:50:08;3.40;;;1.40;;
9524;SDS011;15940;48.734;9.112;2023-12-20T09:52:36;3.07;;;1.43;;
9524;SDS011;15940;48.734;9.112;2023-12-20T09:55:03;3.77;;;1.77;;
9524;SDS011;15940;48.734;9.112;2023-12-20T09:57:30;4.17;;;1.87;;
9524;SDS011;15940;48.734;9.112;2023-12-20T09:59:57;5.03;;;1.57;;
9524;SDS011;15940;48.734;9.112;2023-12-20T10:02:24;1.97;;;1.43;;
9524;SDS011;15940;48.734;9.112;2023-12-20T10:04:52;5.50;;;1.63;;
9524;SDS011;15940;48.734;9.112;2023-12-20T10:07:21;5.03;;;1.40;;
9524;SDS011;15940;48.734;9.112;2023-12-20T10:09:48;5.70;;;1.40;;
9524;SDS011;15940;48.734;9.112;2023-12-20T10:12:15;2.70;;;1.40;;
9524;SDS011;15940;48.734;9.112;2023-12-20T10:14:42;5.83;;;1.83;;
9524;SDS011;15940;48.734;9.112;2023-12-20T10:17:08;4.40;;;2.03;;
9524;SDS011;15940;48.734;9.112;2023-12-20T10:19:35;1.83;;;1.37;;
9524;SDS011;15940;48.734;9.112;2023-12-20T10:22:03;2.63;;;2.03;;
9524;SDS011;15940;48.734;9.112;2023-12-20T10:24:32;2.97;;;1.43;;
9524;SDS011;15940;48.734;9.112;2023-12-20T10:27:01;2.80;;;1.47;;
9524;SDS011;15940;48.734;9.112;2023-12-20T10:29:31;3.63;;;1.43;;
9524;SDS011;15940;48.734;9.112;2023-12-20T10:31:58;2.10;;;1.17;;
9524;SDS011;15940;48.734;9.112;2023-12-20T10:34:25;2.63;;;1.57;;
9524;SDS011;15940;48.734;9.112;2023-12-20T10:36:52;3.53;;;1.63;;
9524;SDS011;15940;48.734;9.112;2023-12-20T10:39:19;2.93;;;1.20;;
9524;SDS011;15940;48.734;9.112;2023-12-20T10:41:47;3.00;;;1.53;;
9524;SDS011;15940;48.734;9.112;2023-12-20T10:44:14;2.23;;;1.47;;
9524;SDS011;15940;48.734;9.112;2023-12-20T10:46:42;3.33;;;1.53;;
9524;SDS011;15940;48.734;9.112;2023-12-20T10:49:12;2.50;;;1.10;;
9524;SDS011;15940;48.734;9.112;2023-12-20T10:51:39;3.43;;;1.73;;
9524;SDS011;15940;48.734;9.112;2023-12-20T10:54:07;4.10;;;1.63;;
9524;SDS011;15940;48.734;9.112;2023-12-20T10:56:34;3.57;;;2.00;;
9524;SDS011;15940;48.734;9.112;2023-12-20T10:59:03;5.93;;;1.60;;
9524;SDS011;15940;48.734;9.112;2023-12-20T11:01:30;4.10;;;1.50;;
9524;SDS011;15940;48.734;9.112;2023-12-20T11:03:57;3.47;;;1.70;;
9524;SDS011;15940;48.734;9.112;2023-12-20T11:06:29;11.67;;;1.63;;
9524;SDS011;15940;48.734;9.112;2023-12-20T11:09:04;2.73;;;1.67;;
9524;SDS011;15940;48.734;9.112;2023-12-20T11:11:40;2.33;;;1.30;;
9524;SDS011;15940;48.734;9.112;2023-12-20T11:14:22;3.53;;;1.43;;
9524;SDS011;15940;48.734;9.112;2023-12-20T11:16:55;2.50;;;1.27;;
9524;SDS011;15940;48.734;9.112;2023-12-20T11:19:31;3.70;;;1.33;;
9524;SDS011;15940;48.734;9.112;2023-12-20T11:21:58;2.67;;;1.43;;
9524;SDS011;15940;48.734;9.112;2023-12-20T11:24:25;7.63;;;1.63;;
9524;SDS011;15940;48.734;9.112;2023-12-20T11:26:54;3.00;;;1.30;;
9524;SDS011;15940;48.734;9.112;2023-12-20T11:29:32;3.37;;;1.50;;
9524;SDS011;15940;48.734;9.112;2023-12-20T11:32:00;4.57;;;1.30;;
9524;SDS011;15940;48.734;9.112;2023-12-20T11:34:29;2.33;;;1.13;;
9524;SDS011;15940;48.734;9.112;2023-12-20T11:36:58;2.23;;;1.50;;
9524;SDS011;15940;48.734;9.112;2023-12-20T11:39:26;6.23;;;1.90;;
9524;SDS011;15940;48.734;9.112;2023-12-20T11:41:54;4.57;;;1.27;;
9524;SDS011;15940;48.734;9.112;2023-12-20T11:44:22;4.47;;;1.70;;
9524;SDS011;15940;48.734;9.112;2023-12-20T11:46:50;3.57;;;1.60;;
9524;SDS011;15940;48.734;9.112;2023-12-20T11:49:22;6.70;;;1.50;;
9524;SDS011;15940;48.734;9.112;2023-12-20T11:51:50;3.00;;;1.70;;
9524;SDS011;15940;48.734;9.112;2023-12-20T11:54:17;3.40;;;1.30;;
9524;SDS011;15940;48.734;9.112;2023-12-20T11:56:44;2.93;;;1.53;;
9524;SDS011;15940;48.734;9.112;2023-12-20T11:59:10;1.57;;;1.40;;
9524;SDS011;15940;48.734;9.112;2023-12-20T12:01:37;5.27;;;1.57;;
9524;SDS011;15940;48.734;9.112;2023-12-20T12:04:05;3.00;;;1.33;;
9524;SDS011;15940;48.734;9.112;2023-12-20T12:06:32;4.03;;;1.37;;
9524;SDS011;15940;48.734;9.112;2023-12-20T12:08:59;3.87;;;1.40;;
9524;SDS011;15940;48.734;9.112;2023-12-20T12:11:26;4.77;;;1.50;;
9524;SDS011;15940;48.734;9.112;2023-12-20T12:13:53;7.77;;;1.90;;
9524;SDS011;15940;48.734;9.112;2023-12-20T12:16:19;3.73;;;1.53;;
9524;SDS011;15940;48.734;9.112;2023-12-20T12:18:54;3.80;;;1.70;;
9524;SDS011;15940;48.734;9.112;2023-12-20T12:21:23;1.47;;;1.30;;
9524;SDS011;15940;48.734;9.112;2023-12-20T12:23:49;6.20;;;2.10;;
9524;SDS011;15940;48.734;9.112;2023-12-20T12:26:16;5.43;;;1.60;;
9524;SDS011;15940;48.734;9.112;2023-12-20T12:28:43;7.07;;;1.67;;
9524;SDS011;15940;48.734;9.112;2023-12-20T12:31:12;4.07;;;1.50;;
9524;SDS011;15940;48.734;9.112;2023-12-20T12:33:40;4.27;;;1.87;;
9524;SDS011;15940;48.734;9.112;2023-12-20T12:36:08;1.97;;;1.50;;
9524;SDS011;15940;48.734;9.112;2023-12-20T12:38:37;3.17;;;1.77;;
9524;SDS011;15940;48.734;9.112;2023-12-20T12:41:04;5.63;;;1.90;;
9524;SDS011;15940;48.734;9.112;2023-12-20T12:43:32;3.70;;;1.67;;
9524;SDS011;15940;48.734;9.112;2023-12-20T12:45:59;2.83;;;1.30;;
9524;SDS011;15940;48.734;9.112;2023-12-20T12:48:26;4.70;;;1.80;;
9524;SDS011;15940;48.734;9.112;2023-12-20T12:50:53;5.10;;;1.77;;
9524;SDS011;15940;48.734;9.112;2023-12-20T12:53:24;3.57;;;1.67;;
9524;SDS011;15940;48.734;9.112;2023-12-20T12:55:52;5.37;;;1.40;;
9524;SDS011;15940;48.734;9.112;2023-12-20T12:58:19;2.40;;;1.63;;
9524;SDS011;15940;48.734;9.112;2023-12-20T13:00:47;3.80;;;1.67;;
9524;SDS011;15940;48.734;9.112;2023-12-20T13:03:13;4.77;;;1.30;;
9524;SDS011;15940;48.734;9.112;2023-12-20T13:05:41;2.77;;;1.30;;
9524;SDS011;15940;48.734;9.112;2023-12-20T13:08:08;4.57;;;1.87;;
9524;SDS011;15940;48.734;9.112;2023-12-20T13:10:37;2.37;;;1.37;;
9524;SDS011;15940;48.734;9.112;2023-12-20T13:13:05;5.03;;;1.70;;
9524;SDS011;15940;48.734;9.112;2023-12-20T13:15:31;8.40;;;2.07;;
9524;SDS011;15940;48.734;9.112;2023-12-20T13:17:58;3.57;;;1.77;;
9524;SDS011;15940;48.734;9.112;2023-12-20T13:20:26;2.17;;;1.40;;
9524;SDS011;15940;48.734;9.112;2023-12-20T13:22:52;2.33;;;1.33;;
9524;SDS011;15940;48.734;9.112;2023-12-20T13:25:19;3.87;;;1.53;;
9524;SDS011;15940;48.734;9.112;2023-12-20T13:27:46;4.23;;;1.40;;
9524;SDS011;15940;48.734;9.112;2023-12-20T13:30:14;3.83;;;1.50;;
9524;SDS011;15940;48.734;9.112;2023-12-20T13:32:42;2.50;;;1.20;;
9524;SDS011;15940;48.734;9.112;2023-12-20T13:35:09;4.77;;;1.50;;
9524;SDS011;15940;48.734;9.112;2023-12-20T13:37:35;3.07;;;1.30;;
9524;SDS011;15940;48.734;9.112;2023-12-20T13:40:02;3.90;;;1.40;;
9524;SDS011;15940;48.734;9.112;2023-12-20T13:42:31;3.87;;;1.40;;
9524;SDS011;15940;48.734;9.112;2023-12-20T13:44:57;4.67;;;1.40;;
9524;SDS011;15940;48.734;9.112;2023-12-20T13:47:25;1.93;;;1.30;;
9524;SDS011;15940;48.734;9.112;2023-12-20T13:49:52;6.53;;;1.60;;
9524;SDS011;15940;48.734;9.112;2023-12-20T13:52:19;4.47;;;1.80;;
9524;SDS011;15940;48.734;9.112;2023-12-20T13:54:46;2.70;;;1.40;;
9524;SDS011;15940;48.734;9.112;2023-12-20T13:57:12;6.80;;;1.53;;
9524;SDS011;15940;48.734;9.112;2023-12-20T13:59:39;3.77;;;1.50;;
9524;SDS011;15940;48.734;9.112;2023-12-20T14:02:06;5.57;;;1.43;;
9524;SDS011;15940;48.734;9.112;2023-12-20T14:04:34;3.53;;;1.30;;
9524;SDS011;15940;48.734;9.112;2023-12-20T14:07:01;4.93;;;1.40;;
9524;SDS011;15940;48.734;9.112;2023-12-20T14:09:27;3.80;;;1.60;;
9524;SDS011;15940;48.734;9.112;2023-12-20T14:11:54;4.00;;;1.27;;
9524;SDS011;15940;48.734;9.112;2023-12-20T14:14:21;3.17;;;1.30;;
9524;SDS011;15940;48.734;9.112;2023-12-20T14:16:48;5.10;;;1.40;;
9524;SDS011;15940;48.734;9.112;2023-12-20T14:19:14;4.50;;;1.20;;
9524;SDS011;15940;48.734;9.112;2023-12-20T14:21:43;4.97;;;1.40;;
9524;SDS011;15940;48.734;9.112;2023-12-20T14:24:10;2.57;;;1.30;;
9524;SDS011;15940;48.734;9.112;2023-12-20T14:26:39;2.70;;;1.20;;
9524;SDS011;15940;48.734;9.112;2023-12-20T14:29:06;3.03;;;1.53;;
9524;SDS011;15940;48.734;9.112;2023-12-20T14:31:34;4.07;;;1.40;;
9524;SDS011;15940;48.734;9.112;2023-12-20T14:34:02;2.60;;;1.10;;
9524;SDS011;15940;48.734;9.112;2023-12-20T14:36:29;2.20;;;1.40;;
9524;SDS011;15940;48.734;9.112;2023-12-20T14:38:58;4.23;;;1.30;;
9524;SDS011;15940;48.734;9.112;2023-12-20T14:41:25;3.97;;;1.30;;
9524;SDS011;15940;48.734;9.112;2023-12-20T14:43:51;4.33;;;1.50;;
9524;SDS011;15940;48.734;9.112;2023-12-20T14:46:18;1.73;;;1.30;;
9524;SDS011;15940;48.734;9.112;2023-12-20T14:48:45;6.20;;;1.40;;
9524;SDS011;15940;48.734;9.112;2023-12-20T14:51:13;3.20;;;1.30;;
9524;SDS011;15940;48.734;9.112;2023-12-20T14:53:40;5.73;;;1.60;;
9524;SDS011;15940;48.734;9.112;2023-12-20T14:56:08;4.93;;;1.40;;
9524;SDS011;15940;48.734;9.112;2023-12-20T14:58:35;6.30;;;1.60;;
9524;SDS011;15940;48.734;9.112;2023-12-20T15:01:02;3.77;;;1.53;;